sensor_id;sensor_type;location;lat;lon;timestamp;P1;durP1;ratioP1;P2;durP2;ratioP2
21430;SDS011;10876;49.038;10.608;2023-05-21T00:00:04;11.43;;;7.47;;
21430;SDS011;10876;49.038;10.608;2023-05-21T00:02:36;11.38;;;7.18;;
21430;SDS011;10876;49.038;10.608;2023-05-21T00:05:03;11.52;;;6.80;;
21430;SDS011;10876;49.038;10.608;2023-05-21T00:07:32;10.50;;;7.22;;
21430;SDS011;10876;49.038;10.608;2023-05-21T00:09:59;10.63;;;7.50;;
21430;SDS011;10876;49.038;10.608;2023-05-21T00:12:26;10.18;;;6.97;;
21430;SDS011;10876;49.038;10.608;2023-05-21T00:14:53;11.48;;;7.43;;
21430;SDS011;10876;49.038;10.608;2023-05-21T00:17:20;10.38;;;7.32;;
21430;SDS011;10876;49.038;10.608;2023-05-21T00:19:47;9.85;;;6.97;;
21430;SDS011;10876;49.038;10.608;2023-05-21T00:22:14;11.25;;;7.88;;
21430;SDS011;10876;49.038;10.608;2023-05-21T00:24:43;11.20;;;6.47;;
21430;SDS011;10876;49.038;10.608;2023-05-21T00:27:10;10.43;;;7.25;;
21430;SDS011;10876;49.038;10.608;2023-05-21T00:29:37;10.30;;;6.95;;
21430;SDS011;10876;49.038;10.608;2023-05-21T00:32:04;11.48;;;7.82;;
21430;SDS011;10876;49.038;10.608;2023-05-21T00:34:32;9.32;;;6.80;;
21430;SDS011;10876;49.038;10.608;2023-05-21T00:36:59;8.43;;;6.57;;
21430;SDS011;10876;49.038;10.608;2023-05-21T00:39:27;10.60;;;7.22;;
21430;SDS011;10876;49.038;10.608;2023-05-21T00:41:55;10.32;;;7.22;;
21430;SDS011;10876;49.038;10.608;2023-05-21T00:44:22;9.35;;;6.47;;
21430;SDS011;10876;49.038;10.608;2023-05-21T00:46:49;11.73;;;7.35;;
21430;SDS011;10876;49.038;10.608;2023-05-21T00:49:18;11.07;;;6.95;;
21430;SDS011;10876;49.038;10.608;2023-05-21T00:51:48;9.35;;;6.75;;
21430;SDS011;10876;49.038;10.608;2023-05-21T00:54:16;10.98;;;7.05;;
21430;SDS011;10876;49.038;10.608;2023-05-21T00:56:43;10.40;;;7.22;;
21430;SDS011;10876;49.038;10.608;2023-05-21T00:59:13;11.63;;;8.40;;
21430;SDS011;10876;49.038;10.608;2023-05-21T01:01:42;11.77;;;8.13;;
21430;SDS011;10876;49.038;10.608;2023-05-21T01:04:09;12.85;;;8.48;;
21430;SDS011;10876;49.038;10.608;2023-05-21T01:06:37;13.05;;;8.07;;
21430;SDS011;10876;49.038;10.608;2023-05-21T01:09:04;12.85;;;8.82;;
21430;SDS011;10876;49.038;10.608;2023-05-21T01:11:36;12.52;;;8.20;;
21430;SDS011;10876;49.038;10.608;2023-05-21T01:14:05;12.00;;;7.78;;
21430;SDS011;10876;49.038;10.608;2023-05-21T01:16:36;13.00;;;8.38;;
21430;SDS011;10876;49.038;10.608;2023-05-21T01:19:05;12.80;;;8.05;;
21430;SDS011;10876;49.038;10.608;2023-05-21T01:21:35;12.15;;;8.52;;
21430;SDS011;10876;49.038;10.608;2023-05-21T01:24:07;12.18;;;8.07;;
21430;SDS011;10876;49.038;10.608;2023-05-21T01:26:34;12.73;;;7.63;;
21430;SDS011;10876;49.038;10.608;2023-05-21T01:29:03;12.48;;;7.97;;
21430;SDS011;10876;49.038;10.608;2023-05-21T01:31:33;11.25;;;7.80;;
21430;SDS011;10876;49.038;10.608;2023-05-21T01:34:08;12.85;;;8.35;;
21430;SDS011;10876;49.038;10.608;2023-05-21T01:36:39;11.07;;;7.63;;
21430;SDS011;10876;49.038;10.608;2023-05-21T01:39:14;11.52;;;8.13;;
21430;SDS011;10876;49.038;10.608;2023-05-21T01:41:45;10.25;;;7.88;;
21430;SDS011;10876;49.038;10.608;2023-05-21T01:44:14;9.77;;;7.95;;
21430;SDS011;10876;49.038;10.608;2023-05-21T01:46:44;12.52;;;7.80;;
21430;SDS011;10876;49.038;10.608;2023-05-21T01:49:11;11.63;;;7.65;;
21430;SDS011;10876;49.038;10.608;2023-05-21T01:51:39;14.80;;;7.90;;
21430;SDS011;10876;49.038;10.608;2023-05-21T01:54:06;11.05;;;7.25;;
21430;SDS011;10876;49.038;10.608;2023-05-21T01:56:35;11.85;;;7.57;;
21430;SDS011;10876;49.038;10.608;2023-05-21T01:59:02;11.82;;;7.53;;
21430;SDS011;10876;49.038;10.608;2023-05-21T02:01:29;11.55;;;7.38;;
21430;SDS011;10876;49.038;10.608;2023-05-21T02:03:56;14.48;;;7.78;;
21430;SDS011;10876;49.038;10.608;2023-05-21T02:06:23;10.82;;;7.90;;
21430;SDS011;10876;49.038;10.608;2023-05-21T02:08:50;10.02;;;7.57;;
21430;SDS011;10876;49.038;10.608;2023-05-21T02:11:17;11.10;;;7.78;;
21430;SDS011;10876;49.038;10.608;2023-05-21T02:13:46;11.45;;;7.95;;
21430;SDS011;10876;49.038;10.608;2023-05-21T02:16:13;11.38;;;7.72;;
21430;SDS011;10876;49.038;10.608;2023-05-21T02:18:40;12.07;;;7.50;;
21430;SDS011;10876;49.038;10.608;2023-05-21T02:21:08;10.80;;;7.63;;
21430;SDS011;10876;49.038;10.608;2023-05-21T02:23:36;10.80;;;7.50;;
21430;SDS011;10876;49.038;10.608;2023-05-21T02:26:03;12.63;;;7.47;;
21430;SDS011;10876;49.038;10.608;2023-05-21T02:28:30;9.35;;;6.85;;
21430;SDS011;10876;49.038;10.608;2023-05-21T02:30:59;10.77;;;7.63;;
21430;SDS011;10876;49.038;10.608;2023-05-21T02:33:26;12.23;;;7.15;;
21430;SDS011;10876;49.038;10.608;2023-05-21T02:35:53;13.95;;;7.43;;
21430;SDS011;10876;49.038;10.608;2023-05-21T02:38:20;8.88;;;6.78;;
21430;SDS011;10876;49.038;10.608;2023-05-21T02:40:47;12.02;;;7.18;;
21430;SDS011;10876;49.038;10.608;2023-05-21T02:43:15;10.55;;;7.00;;
21430;SDS011;10876;49.038;10.608;2023-05-21T02:45:42;11.20;;;7.32;;
21430;SDS011;10876;49.038;10.608;2023-05-21T02:48:11;9.93;;;6.70;;
21430;SDS011;10876;49.038;10.608;2023-05-21T02:50:38;10.77;;;7.28;;
21430;SDS011;10876;49.038;10.608;2023-05-21T02:53:05;12.43;;;7.32;;
21430;SDS011;10876;49.038;10.608;2023-05-21T02:55:32;9.77;;;7.03;;
21430;SDS011;10876;49.038;10.608;2023-05-21T02:57:59;10.57;;;7.20;;
21430;SDS011;10876;49.038;10.608;2023-05-21T03:00:26;10.80;;;6.88;;
21430;SDS011;10876;49.038;10.608;2023-05-21T03:02:53;10.68;;;6.90;;
21430;SDS011;10876;49.038;10.608;2023-05-21T03:05:21;10.98;;;7.38;;
21430;SDS011;10876;49.038;10.608;2023-05-21T03:07:48;11.70;;;7.65;;
21430;SDS011;10876;49.038;10.608;2023-05-21T03:10:15;9.40;;;7.20;;
21430;SDS011;10876;49.038;10.608;2023-05-21T03:12:42;11.73;;;7.65;;
21430;SDS011;10876;49.038;10.608;2023-05-21T03:15:10;10.80;;;6.85;;
21430;SDS011;10876;49.038;10.608;2023-05-21T03:17:38;9.13;;;6.80;;
21430;SDS011;10876;49.038;10.608;2023-05-21T03:20:09;11.52;;;7.13;;
21430;SDS011;10876;49.038;10.608;2023-05-21T03:22:42;9.43;;;6.55;;
21430;SDS011;10876;49.038;10.608;2023-05-21T03:25:10;9.57;;;6.85;;
21430;SDS011;10876;49.038;10.608;2023-05-21T03:27:38;10.68;;;7.25;;
21430;SDS011;10876;49.038;10.608;2023-05-21T03:30:05;11.15;;;7.07;;
21430;SDS011;10876;49.038;10.608;2023-05-21T03:32:33;11.32;;;7.05;;
21430;SDS011;10876;49.038;10.608;2023-05-21T03:35:02;11.93;;;7.00;;
21430;SDS011;10876;49.038;10.608;2023-05-21T03:37:29;10.50;;;7.10;;
21430;SDS011;10876;49.038;10.608;2023-05-21T03:39:57;9.68;;;6.78;;
21430;SDS011;10876;49.038;10.608;2023-05-21T03:42:24;9.60;;;6.88;;
21430;SDS011;10876;49.038;10.608;2023-05-21T03:44:51;10.20;;;6.70;;
21430;SDS011;10876;49.038;10.608;2023-05-21T03:47:18;11.00;;;7.18;;
21430;SDS011;10876;49.038;10.608;2023-05-21T03:49:45;11.07;;;7.22;;
21430;SDS011;10876;49.038;10.608;2023-05-21T03:52:12;10.32;;;7.15;;
21430;SDS011;10876;49.038;10.608;2023-05-21T03:54:39;10.25;;;7.53;;
21430;SDS011;10876;49.038;10.608;2023-05-21T03:57:08;9.88;;;6.95;;
21430;SDS011;10876;49.038;10.608;2023-05-21T03:59:35;11.05;;;6.85;;
21430;SDS011;10876;49.038;10.608;2023-05-21T04:02:02;10.13;;;7.10;;
21430;SDS011;10876;49.038;10.608;2023-05-21T04:04:29;12.05;;;8.07;;
21430;SDS011;10876;49.038;10.608;2023-05-21T04:06:57;9.75;;;7.00;;
21430;SDS011;10876;49.038;10.608;2023-05-21T04:09:25;10.82;;;7.10;;
21430;SDS011;10876;49.038;10.608;2023-05-21T04:11:52;9.20;;;7.10;;
21430;SDS011;10876;49.038;10.608;2023-05-21T04:14:21;10.10;;;7.00;;
21430;SDS011;10876;49.038;10.608;2023-05-21T04:16:48;12.38;;;7.18;;
21430;SDS011;10876;49.038;10.608;2023-05-21T04:19:15;10.10;;;7.43;;
21430;SDS011;10876;49.038;10.608;2023-05-21T04:21:42;10.45;;;6.38;;
21430;SDS011;10876;49.038;10.608;2023-05-21T04:24:10;9.20;;;6.70;;
21430;SDS011;10876;49.038;10.608;2023-05-21T04:26:37;9.80;;;6.22;;
21430;SDS011;10876;49.038;10.608;2023-05-21T04:29:06;10.27;;;6.50;;
21430;SDS011;10876;49.038;10.608;2023-05-21T04:31:35;10.55;;;6.88;;
21430;SDS011;10876;49.038;10.608;2023-05-21T04:34:02;11.20;;;6.93;;
21430;SDS011;10876;49.038;10.608;2023-05-21T04:36:29;9.73;;;7.05;;
21430;SDS011;10876;49.038;10.608;2023-05-21T04:38:58;11.38;;;6.72;;
21430;SDS011;10876;49.038;10.608;2023-05-21T04:41:25;9.98;;;6.13;;
21430;SDS011;10876;49.038;10.608;2023-05-21T04:43:52;9.23;;;6.47;;
21430;SDS011;10876;49.038;10.608;2023-05-21T04:46:19;8.88;;;6.47;;
21430;SDS011;10876;49.038;10.608;2023-05-21T04:48:51;10.88;;;6.60;;
21430;SDS011;10876;49.038;10.608;2023-05-21T04:51:19;9.55;;;6.57;;
21430;SDS011;10876;49.038;10.608;2023-05-21T04:53:48;10.38;;;7.25;;
21430;SDS011;10876;49.038;10.608;2023-05-21T04:56:17;8.63;;;6.50;;
21430;SDS011;10876;49.038;10.608;2023-05-21T04:58:44;12.02;;;6.45;;
21430;SDS011;10876;49.038;10.608;2023-05-21T05:01:13;9.38;;;6.43;;
21430;SDS011;10876;49.038;10.608;2023-05-21T05:03:40;9.93;;;6.57;;
21430;SDS011;10876;49.038;10.608;2023-05-21T05:06:08;10.32;;;6.55;;
21430;SDS011;10876;49.038;10.608;2023-05-21T05:08:35;9.10;;;6.28;;
21430;SDS011;10876;49.038;10.608;2023-05-21T05:11:03;10.20;;;6.32;;
21430;SDS011;10876;49.038;10.608;2023-05-21T05:13:30;10.05;;;6.75;;
21430;SDS011;10876;49.038;10.608;2023-05-21T05:15:57;10.32;;;6.20;;
21430;SDS011;10876;49.038;10.608;2023-05-21T05:18:24;9.98;;;6.40;;
21430;SDS011;10876;49.038;10.608;2023-05-21T05:20:51;9.23;;;6.20;;
21430;SDS011;10876;49.038;10.608;2023-05-21T05:23:20;9.73;;;6.18;;
21430;SDS011;10876;49.038;10.608;2023-05-21T05:25:46;10.02;;;6.10;;
21430;SDS011;10876;49.038;10.608;2023-05-21T05:28:13;11.25;;;5.90;;
21430;SDS011;10876;49.038;10.608;2023-05-21T05:30:40;8.15;;;6.03;;
21430;SDS011;10876;49.038;10.608;2023-05-21T05:33:07;9.95;;;6.35;;
21430;SDS011;10876;49.038;10.608;2023-05-21T05:35:35;9.52;;;6.32;;
21430;SDS011;10876;49.038;10.608;2023-05-21T05:38:02;8.45;;;5.85;;
21430;SDS011;10876;49.038;10.608;2023-05-21T05:40:30;10.32;;;6.57;;
21430;SDS011;10876;49.038;10.608;2023-05-21T05:42:58;10.15;;;6.70;;
21430;SDS011;10876;49.038;10.608;2023-05-21T05:45:25;9.57;;;6.63;;
21430;SDS011;10876;49.038;10.608;2023-05-21T05:47:52;9.75;;;6.50;;
21430;SDS011;10876;49.038;10.608;2023-05-21T05:50:19;10.88;;;6.40;;
21430;SDS011;10876;49.038;10.608;2023-05-21T05:52:46;9.68;;;6.22;;
21430;SDS011;10876;49.038;10.608;2023-05-21T05:55:14;7.75;;;6.05;;
21430;SDS011;10876;49.038;10.608;2023-05-21T05:57:42;10.02;;;6.47;;
21430;SDS011;10876;49.038;10.608;2023-05-21T06:00:10;10.60;;;6.13;;
21430;SDS011;10876;49.038;10.608;2023-05-21T06:02:37;9.55;;;6.45;;
21430;SDS011;10876;49.038;10.608;2023-05-21T06:05:05;12.27;;;6.50;;
21430;SDS011;10876;49.038;10.608;2023-05-21T06:07:34;10.93;;;6.82;;
21430;SDS011;10876;49.038;10.608;2023-05-21T06:10:04;9.43;;;6.55;;
21430;SDS011;10876;49.038;10.608;2023-05-21T06:12:31;9.77;;;6.80;;
21430;SDS011;10876;49.038;10.608;2023-05-21T06:15:00;11.15;;;7.30;;
21430;SDS011;10876;49.038;10.608;2023-05-21T06:17:27;10.15;;;7.03;;
21430;SDS011;10876;49.038;10.608;2023-05-21T06:19:54;9.32;;;6.80;;
21430;SDS011;10876;49.038;10.608;2023-05-21T06:22:21;10.30;;;6.85;;
21430;SDS011;10876;49.038;10.608;2023-05-21T06:24:48;9.57;;;6.85;;
21430;SDS011;10876;49.038;10.608;2023-05-21T06:27:15;10.00;;;6.95;;
21430;SDS011;10876;49.038;10.608;2023-05-21T06:29:42;12.20;;;7.55;;
21430;SDS011;10876;49.038;10.608;2023-05-21T06:32:11;11.93;;;7.85;;
21430;SDS011;10876;49.038;10.608;2023-05-21T06:34:38;10.93;;;7.38;;
21430;SDS011;10876;49.038;10.608;2023-05-21T06:37:05;11.98;;;7.30;;
21430;SDS011;10876;49.038;10.608;2023-05-21T06:39:32;11.02;;;7.70;;
21430;SDS011;10876;49.038;10.608;2023-05-21T06:41:59;10.18;;;7.05;;
21430;SDS011;10876;49.038;10.608;2023-05-21T06:44:26;10.98;;;7.50;;
21430;SDS011;10876;49.038;10.608;2023-05-21T06:46:53;10.57;;;7.32;;
21430;SDS011;10876;49.038;10.608;2023-05-21T06:49:21;10.65;;;7.57;;
21430;SDS011;10876;49.038;10.608;2023-05-21T06:51:48;10.63;;;7.78;;
21430;SDS011;10876;49.038;10.608;2023-05-21T06:54:15;11.13;;;7.57;;
21430;SDS011;10876;49.038;10.608;2023-05-21T06:56:42;12.55;;;7.90;;
21430;SDS011;10876;49.038;10.608;2023-05-21T06:59:09;10.48;;;7.47;;
21430;SDS011;10876;49.038;10.608;2023-05-21T07:01:36;12.65;;;8.02;;
21430;SDS011;10876;49.038;10.608;2023-05-21T07:04:06;10.65;;;7.80;;
21430;SDS011;10876;49.038;10.608;2023-05-21T07:06:35;13.23;;;8.02;;
21430;SDS011;10876;49.038;10.608;2023-05-21T07:09:02;9.43;;;7.13;;
21430;SDS011;10876;49.038;10.608;2023-05-21T07:11:30;12.82;;;7.25;;
21430;SDS011;10876;49.038;10.608;2023-05-21T07:13:58;11.32;;;7.20;;
21430;SDS011;10876;49.038;10.608;2023-05-21T07:16:26;13.38;;;7.35;;
21430;SDS011;10876;49.038;10.608;2023-05-21T07:18:53;11.25;;;6.85;;
21430;SDS011;10876;49.038;10.608;2023-05-21T07:21:20;13.63;;;8.18;;
21430;SDS011;10876;49.038;10.608;2023-05-21T07:23:48;9.63;;;7.28;;
21430;SDS011;10876;49.038;10.608;2023-05-21T07:26:15;11.70;;;7.93;;
21430;SDS011;10876;49.038;10.608;2023-05-21T07:28:42;10.82;;;7.65;;
21430;SDS011;10876;49.038;10.608;2023-05-21T07:31:09;12.55;;;7.75;;
21430;SDS011;10876;49.038;10.608;2023-05-21T07:33:37;10.40;;;7.40;;
21430;SDS011;10876;49.038;10.608;2023-05-21T07:36:04;13.30;;;8.07;;
21430;SDS011;10876;49.038;10.608;2023-05-21T07:38:31;11.90;;;8.18;;
21430;SDS011;10876;49.038;10.608;2023-05-21T07:41:00;10.95;;;7.25;;
21430;SDS011;10876;49.038;10.608;2023-05-21T07:43:27;10.75;;;8.00;;
21430;SDS011;10876;49.038;10.608;2023-05-21T07:45:53;13.35;;;8.32;;
21430;SDS011;10876;49.038;10.608;2023-05-21T07:48:20;12.38;;;8.20;;
21430;SDS011;10876;49.038;10.608;2023-05-21T07:50:48;13.93;;;8.25;;
21430;SDS011;10876;49.038;10.608;2023-05-21T07:53:16;10.95;;;8.13;;
21430;SDS011;10876;49.038;10.608;2023-05-21T07:55:45;11.38;;;7.60;;
21430;SDS011;10876;49.038;10.608;2023-05-21T07:58:15;13.60;;;8.77;;
21430;SDS011;10876;49.038;10.608;2023-05-21T08:00:43;12.45;;;8.30;;
21430;SDS011;10876;49.038;10.608;2023-05-21T08:03:12;11.55;;;8.05;;
21430;SDS011;10876;49.038;10.608;2023-05-21T08:05:41;12.13;;;7.88;;
21430;SDS011;10876;49.038;10.608;2023-05-21T08:08:12;11.63;;;8.30;;
21430;SDS011;10876;49.038;10.608;2023-05-21T08:10:39;11.68;;;7.80;;
21430;SDS011;10876;49.038;10.608;2023-05-21T08:13:06;11.35;;;7.72;;
21430;SDS011;10876;49.038;10.608;2023-05-21T08:15:35;12.23;;;8.10;;
21430;SDS011;10876;49.038;10.608;2023-05-21T08:18:02;12.90;;;8.15;;
21430;SDS011;10876;49.038;10.608;2023-05-21T08:20:30;12.88;;;8.05;;
21430;SDS011;10876;49.038;10.608;2023-05-21T08:22:57;13.15;;;8.00;;
21430;SDS011;10876;49.038;10.608;2023-05-21T08:25:25;13.77;;;8.32;;
21430;SDS011;10876;49.038;10.608;2023-05-21T08:27:52;13.07;;;7.72;;
21430;SDS011;10876;49.038;10.608;2023-05-21T08:30:19;12.40;;;7.60;;
21430;SDS011;10876;49.038;10.608;2023-05-21T08:32:48;12.02;;;7.88;;
21430;SDS011;10876;49.038;10.608;2023-05-21T08:35:15;11.82;;;7.10;;
21430;SDS011;10876;49.038;10.608;2023-05-21T08:37:42;12.05;;;7.45;;
21430;SDS011;10876;49.038;10.608;2023-05-21T08:40:09;11.27;;;7.85;;
21430;SDS011;10876;49.038;10.608;2023-05-21T08:42:38;9.18;;;6.65;;
21430;SDS011;10876;49.038;10.608;2023-05-21T08:45:08;10.20;;;7.15;;
21430;SDS011;10876;49.038;10.608;2023-05-21T08:47:37;11.20;;;6.63;;
21430;SDS011;10876;49.038;10.608;2023-05-21T08:50:09;10.80;;;7.28;;
21430;SDS011;10876;49.038;10.608;2023-05-21T08:52:37;10.93;;;7.18;;
21430;SDS011;10876;49.038;10.608;2023-05-21T08:55:05;10.02;;;6.68;;
21430;SDS011;10876;49.038;10.608;2023-05-21T08:57:32;10.40;;;7.65;;
21430;SDS011;10876;49.038;10.608;2023-05-21T09:00:00;10.27;;;7.13;;
21430;SDS011;10876;49.038;10.608;2023-05-21T09:02:32;9.73;;;7.10;;
21430;SDS011;10876;49.038;10.608;2023-05-21T09:05:02;9.45;;;7.15;;
21430;SDS011;10876;49.038;10.608;2023-05-21T09:07:33;9.45;;;6.80;;
21430;SDS011;10876;49.038;10.608;2023-05-21T09:10:05;10.45;;;6.88;;
21430;SDS011;10876;49.038;10.608;2023-05-21T09:12:34;9.05;;;6.35;;
21430;SDS011;10876;49.038;10.608;2023-05-21T09:15:01;10.15;;;6.68;;
21430;SDS011;10876;49.038;10.608;2023-05-21T09:17:29;9.18;;;7.05;;
21430;SDS011;10876;49.038;10.608;2023-05-21T09:20:06;8.27;;;6.63;;
21430;SDS011;10876;49.038;10.608;2023-05-21T09:22:42;8.52;;;6.38;;
21430;SDS011;10876;49.038;10.608;2023-05-21T09:25:10;7.45;;;6.03;;
21430;SDS011;10876;49.038;10.608;2023-05-21T09:27:38;9.48;;;6.75;;
21430;SDS011;10876;49.038;10.608;2023-05-21T09:30:08;12.32;;;7.10;;
21430;SDS011;10876;49.038;10.608;2023-05-21T09:32:36;9.30;;;6.10;;
21430;SDS011;10876;49.038;10.608;2023-05-21T09:35:07;8.48;;;6.20;;
21430;SDS011;10876;49.038;10.608;2023-05-21T09:37:39;7.28;;;5.45;;
21430;SDS011;10876;49.038;10.608;2023-05-21T09:40:15;9.68;;;5.63;;
21430;SDS011;10876;49.038;10.608;2023-05-21T09:42:44;8.82;;;6.20;;
21430;SDS011;10876;49.038;10.608;2023-05-21T09:45:16;9.57;;;6.40;;
21430;SDS011;10876;49.038;10.608;2023-05-21T09:47:44;20.00;;;7.32;;
21430;SDS011;10876;49.038;10.608;2023-05-21T09:50:12;7.25;;;5.70;;
21430;SDS011;10876;49.038;10.608;2023-05-21T09:52:43;7.82;;;5.78;;
21430;SDS011;10876;49.038;10.608;2023-05-21T09:55:10;9.48;;;5.45;;
21430;SDS011;10876;49.038;10.608;2023-05-21T09:57:41;8.77;;;6.07;;
21430;SDS011;10876;49.038;10.608;2023-05-21T10:00:09;8.65;;;6.15;;
21430;SDS011;10876;49.038;10.608;2023-05-21T10:02:43;9.82;;;6.90;;
21430;SDS011;10876;49.038;10.608;2023-05-21T10:05:12;10.10;;;6.93;;
21430;SDS011;10876;49.038;10.608;2023-05-21T10:07:40;9.27;;;6.90;;
21430;SDS011;10876;49.038;10.608;2023-05-21T10:10:11;8.38;;;6.05;;
21430;SDS011;10876;49.038;10.608;2023-05-21T10:12:42;11.77;;;7.78;;
21430;SDS011;10876;49.038;10.608;2023-05-21T10:15:12;11.50;;;7.50;;
21430;SDS011;10876;49.038;10.608;2023-05-21T10:17:40;8.50;;;6.30;;
21430;SDS011;10876;49.038;10.608;2023-05-21T10:20:11;9.02;;;6.60;;
21430;SDS011;10876;49.038;10.608;2023-05-21T10:22:38;10.57;;;6.80;;
21430;SDS011;10876;49.038;10.608;2023-05-21T10:25:06;10.50;;;7.40;;
21430;SDS011;10876;49.038;10.608;2023-05-21T10:27:34;11.05;;;6.50;;
21430;SDS011;10876;49.038;10.608;2023-05-21T10:30:03;9.40;;;6.78;;
21430;SDS011;10876;49.038;10.608;2023-05-21T10:32:32;8.75;;;6.50;;
21430;SDS011;10876;49.038;10.608;2023-05-21T10:35:00;11.07;;;6.80;;
21430;SDS011;10876;49.038;10.608;2023-05-21T10:37:27;11.27;;;7.05;;
21430;SDS011;10876;49.038;10.608;2023-05-21T10:39:55;8.63;;;6.85;;
21430;SDS011;10876;49.038;10.608;2023-05-21T10:42:25;9.10;;;6.55;;
21430;SDS011;10876;49.038;10.608;2023-05-21T10:45:29;10.25;;;6.75;;
21430;SDS011;10876;49.038;10.608;2023-05-21T10:48:11;8.63;;;6.47;;
21430;SDS011;10876;49.038;10.608;2023-05-21T10:50:55;8.15;;;6.55;;
21430;SDS011;10876;49.038;10.608;2023-05-21T10:53:38;10.45;;;6.63;;
21430;SDS011;10876;49.038;10.608;2023-05-21T10:56:20;11.30;;;7.18;;
21430;SDS011;10876;49.038;10.608;2023-05-21T10:58:53;12.10;;;7.32;;
21430;SDS011;10876;49.038;10.608;2023-05-21T11:01:33;8.88;;;7.05;;
21430;SDS011;10876;49.038;10.608;2023-05-21T11:04:03;12.95;;;7.10;;
21430;SDS011;10876;49.038;10.608;2023-05-21T11:06:30;9.60;;;6.90;;
21430;SDS011;10876;49.038;10.608;2023-05-21T11:09:01;9.77;;;6.15;;
21430;SDS011;10876;49.038;10.608;2023-05-21T11:11:40;7.93;;;5.63;;
21430;SDS011;10876;49.038;10.608;2023-05-21T11:14:24;7.35;;;5.93;;
21430;SDS011;10876;49.038;10.608;2023-05-21T11:17:02;8.75;;;5.65;;
21430;SDS011;10876;49.038;10.608;2023-05-21T11:19:33;8.02;;;6.10;;
21430;SDS011;10876;49.038;10.608;2023-05-21T11:22:21;8.63;;;5.93;;
21430;SDS011;10876;49.038;10.608;2023-05-21T11:24:49;9.43;;;6.93;;
21430;SDS011;10876;49.038;10.608;2023-05-21T11:27:30;9.63;;;7.20;;
21430;SDS011;10876;49.038;10.608;2023-05-21T11:29:58;7.93;;;6.10;;
21430;SDS011;10876;49.038;10.608;2023-05-21T11:32:29;8.63;;;6.30;;
21430;SDS011;10876;49.038;10.608;2023-05-21T11:34:58;9.93;;;6.95;;
21430;SDS011;10876;49.038;10.608;2023-05-21T11:37:28;9.40;;;6.90;;
21430;SDS011;10876;49.038;10.608;2023-05-21T11:39:57;8.90;;;6.93;;
21430;SDS011;10876;49.038;10.608;2023-05-21T11:42:41;12.88;;;6.75;;
21430;SDS011;10876;49.038;10.608;2023-05-21T11:45:09;8.98;;;7.00;;
21430;SDS011;10876;49.038;10.608;2023-05-21T11:47:38;9.43;;;6.72;;
21430;SDS011;10876;49.038;10.608;2023-05-21T11:50:07;7.53;;;5.88;;
21430;SDS011;10876;49.038;10.608;2023-05-21T11:52:38;7.63;;;5.97;;
21430;SDS011;10876;49.038;10.608;2023-05-21T11:55:06;12.70;;;5.70;;
21430;SDS011;10876;49.038;10.608;2023-05-21T11:57:34;8.10;;;5.72;;
21430;SDS011;10876;49.038;10.608;2023-05-21T12:00:01;7.40;;;5.97;;
21430;SDS011;10876;49.038;10.608;2023-05-21T12:02:40;7.95;;;5.78;;
21430;SDS011;10876;49.038;10.608;2023-05-21T12:05:10;11.05;;;5.68;;
21430;SDS011;10876;49.038;10.608;2023-05-21T12:07:37;10.75;;;5.70;;
21430;SDS011;10876;49.038;10.608;2023-05-21T12:10:04;8.25;;;5.63;;
21430;SDS011;10876;49.038;10.608;2023-05-21T12:12:32;6.88;;;5.15;;
21430;SDS011;10876;49.038;10.608;2023-05-21T12:15:00;12.82;;;5.88;;
21430;SDS011;10876;49.038;10.608;2023-05-21T12:17:29;7.28;;;5.60;;
21430;SDS011;10876;49.038;10.608;2023-05-21T12:19:58;7.60;;;5.82;;
21430;SDS011;10876;49.038;10.608;2023-05-21T12:22:30;7.55;;;5.90;;
21430;SDS011;10876;49.038;10.608;2023-05-21T12:24:57;8.90;;;6.35;;
21430;SDS011;10876;49.038;10.608;2023-05-21T12:27:25;9.57;;;6.18;;
21430;SDS011;10876;49.038;10.608;2023-05-21T12:29:52;8.63;;;6.13;;
21430;SDS011;10876;49.038;10.608;2023-05-21T12:32:20;7.07;;;5.68;;
21430;SDS011;10876;49.038;10.608;2023-05-21T12:34:47;10.70;;;6.07;;
21430;SDS011;10876;49.038;10.608;2023-05-21T12:37:18;7.90;;;6.13;;
21430;SDS011;10876;49.038;10.608;2023-05-21T12:39:47;9.32;;;5.93;;
21430;SDS011;10876;49.038;10.608;2023-05-21T12:42:16;8.32;;;5.82;;
21430;SDS011;10876;49.038;10.608;2023-05-21T12:44:50;8.10;;;5.85;;
21430;SDS011;10876;49.038;10.608;2023-05-21T12:47:18;8.20;;;6.15;;
21430;SDS011;10876;49.038;10.608;2023-05-21T12:49:48;7.93;;;5.55;;
21430;SDS011;10876;49.038;10.608;2023-05-21T12:52:17;7.78;;;5.93;;
21430;SDS011;10876;49.038;10.608;2023-05-21T12:54:48;8.20;;;5.72;;
21430;SDS011;10876;49.038;10.608;2023-05-21T12:57:16;8.40;;;5.28;;
21430;SDS011;10876;49.038;10.608;2023-05-21T12:59:49;10.32;;;6.32;;
21430;SDS011;10876;49.038;10.608;2023-05-21T13:02:18;9.27;;;5.43;;
21430;SDS011;10876;49.038;10.608;2023-05-21T13:04:46;6.50;;;5.28;;
21430;SDS011;10876;49.038;10.608;2023-05-21T13:07:13;9.63;;;5.63;;
21430;SDS011;10876;49.038;10.608;2023-05-21T13:09:43;6.15;;;5.40;;
21430;SDS011;10876;49.038;10.608;2023-05-21T13:12:10;7.07;;;5.28;;
21430;SDS011;10876;49.038;10.608;2023-05-21T13:14:37;9.55;;;5.78;;
21430;SDS011;10876;49.038;10.608;2023-05-21T13:17:04;7.20;;;5.10;;
21430;SDS011;10876;49.038;10.608;2023-05-21T13:19:32;6.40;;;5.07;;
21430;SDS011;10876;49.038;10.608;2023-05-21T13:21:59;6.50;;;5.10;;
21430;SDS011;10876;49.038;10.608;2023-05-21T13:24:26;7.03;;;5.35;;
21430;SDS011;10876;49.038;10.608;2023-05-21T13:26:54;7.43;;;5.13;;
21430;SDS011;10876;49.038;10.608;2023-05-21T13:29:22;9.85;;;4.72;;
21430;SDS011;10876;49.038;10.608;2023-05-21T13:31:49;6.95;;;5.38;;
21430;SDS011;10876;49.038;10.608;2023-05-21T13:34:16;6.82;;;5.07;;
21430;SDS011;10876;49.038;10.608;2023-05-21T13:36:43;7.35;;;5.10;;
21430;SDS011;10876;49.038;10.608;2023-05-21T13:39:10;7.35;;;4.60;;
21430;SDS011;10876;49.038;10.608;2023-05-21T13:41:37;9.32;;;5.18;;
21430;SDS011;10876;49.038;10.608;2023-05-21T13:44:05;8.20;;;5.55;;
21430;SDS011;10876;49.038;10.608;2023-05-21T13:46:32;12.52;;;5.22;;
21430;SDS011;10876;49.038;10.608;2023-05-21T13:49:03;7.15;;;5.35;;
21430;SDS011;10876;49.038;10.608;2023-05-21T13:51:31;7.80;;;5.25;;
21430;SDS011;10876;49.038;10.608;2023-05-21T13:53:58;9.25;;;6.63;;
21430;SDS011;10876;49.038;10.608;2023-05-21T13:56:25;7.05;;;5.10;;
21430;SDS011;10876;49.038;10.608;2023-05-21T13:58:52;8.85;;;5.70;;
21430;SDS011;10876;49.038;10.608;2023-05-21T14:01:21;9.68;;;4.90;;
21430;SDS011;10876;49.038;10.608;2023-05-21T14:03:48;6.95;;;5.13;;
21430;SDS011;10876;49.038;10.608;2023-05-21T14:06:15;6.38;;;4.65;;
21430;SDS011;10876;49.038;10.608;2023-05-21T14:08:41;8.18;;;4.93;;
21430;SDS011;10876;49.038;10.608;2023-05-21T14:11:08;6.57;;;4.90;;
21430;SDS011;10876;49.038;10.608;2023-05-21T14:13:35;7.82;;;4.95;;
21430;SDS011;10876;49.038;10.608;2023-05-21T14:16:02;6.78;;;4.50;;
21430;SDS011;10876;49.038;10.608;2023-05-21T14:18:31;5.50;;;4.68;;
21430;SDS011;10876;49.038;10.608;2023-05-21T14:20:58;8.73;;;4.95;;
21430;SDS011;10876;49.038;10.608;2023-05-21T14:23:26;5.45;;;4.57;;
21430;SDS011;10876;49.038;10.608;2023-05-21T14:25:53;8.68;;;4.55;;
21430;SDS011;10876;49.038;10.608;2023-05-21T14:28:20;6.05;;;4.70;;
21430;SDS011;10876;49.038;10.608;2023-05-21T14:30:47;7.05;;;5.10;;
21430;SDS011;10876;49.038;10.608;2023-05-21T14:33:14;6.50;;;4.60;;
21430;SDS011;10876;49.038;10.608;2023-05-21T14:35:43;12.82;;;5.28;;